createdAt,value
2022-09-21T00:01:42.675Z,7.22
2022-09-21T00:07:05.072Z,6.91
2022-09-21T00:12:26.921Z,6.49
2022-09-21T00:17:54.341Z,6.64
2022-09-21T00:23:16.981Z,6.41
2022-09-21T00:28:41.220Z,6.44
2022-09-21T00:34:04.434Z,5.99
2022-09-21T00:39:26.933Z,5.95
2022-09-21T00:44:49.131Z,6.19
2022-09-21T00:50:15.150Z,6.00
2022-09-21T00:55:49.845Z,5.77
2022-09-21T01:01:15.419Z,5.94
2022-09-21T01:06:39.422Z,6.21
2022-09-21T01:12:06.876Z,6.15
2022-09-21T01:17:53.984Z,6.23
2022-09-21T01:23:38.739Z,6.32
2022-09-21T01:29:09.449Z,6.30
2022-09-21T01:34:36.557Z,6.36
2022-09-21T01:40:03.513Z,6.10
2022-09-21T01:45:38.862Z,6.39
2022-09-21T01:51:04.021Z,6.17
2022-09-21T01:56:38.753Z,6.37
2022-09-21T02:02:09.629Z,6.42
2022-09-21T02:07:34.472Z,6.19
2022-09-21T02:13:01.821Z,5.99
2022-09-21T02:19:00.960Z,6.50
2022-09-21T02:24:42.045Z,6.44
2022-09-21T02:30:19.462Z,6.00
2022-09-21T02:35:41.584Z,6.36
2022-09-21T02:41:27.561Z,6.35
2022-09-21T02:47:08.503Z,6.36
2022-09-21T02:52:33.581Z,6.22
2022-09-21T02:57:57.047Z,6.08
2022-09-21T03:03:25.303Z,6.06
2022-09-21T03:08:47.333Z,5.98
2022-09-21T03:14:09.581Z,5.98
2022-09-21T03:19:31.535Z,5.94
2022-09-21T03:24:58.091Z,5.94
2022-09-21T03:30:24.601Z,5.81
2022-09-21T03:35:48.853Z,5.93
2022-09-21T03:41:11.141Z,5.91
2022-09-21T03:46:36.617Z,5.85
2022-09-21T03:52:01.243Z,5.71
2022-09-21T03:57:24.151Z,5.73
2022-09-21T04:02:46.284Z,5.86
2022-09-21T04:08:10.332Z,5.61
2022-09-21T04:13:32.661Z,5.60
2022-09-21T04:18:58.311Z,5.92
2022-09-21T04:24:50.316Z,5.94
2022-09-21T04:30:18.491Z,6.09
2022-09-21T04:35:41.623Z,6.55
2022-09-21T04:41:04.044Z,6.69
2022-09-21T04:46:26.522Z,6.81
2022-09-21T04:51:49.072Z,7.01
2022-09-21T04:57:10.527Z,7.10
2022-09-21T05:02:32.418Z,7.34
2022-09-21T05:07:54.781Z,7.37
2022-09-21T05:13:19.717Z,7.65
2022-09-21T05:18:41.651Z,7.91
2022-09-21T05:24:03.894Z,8.14
2022-09-21T05:29:26.812Z,8.37
2022-09-21T05:34:54.659Z,8.19
2022-09-21T05:40:18.259Z,8.61
2022-09-21T05:45:57.682Z,8.16
2022-09-21T05:52:01.502Z,8.74
2022-09-21T05:58:08.330Z,8.86
2022-09-21T06:03:36.761Z,8.86
2022-09-21T06:09:04.942Z,9.18
2022-09-21T06:21:12.751Z,9.49
2022-09-21T06:26:34.932Z,10.12
2022-09-21T06:31:56.803Z,10.53
2022-09-21T06:37:18.763Z,10.65
2022-09-21T06:42:43.840Z,10.70
2022-09-21T06:48:06.012Z,10.90
2022-09-21T06:53:30.259Z,11.07
2022-09-21T06:58:53.151Z,11.42
2022-09-21T07:04:15.252Z,11.58
2022-09-21T07:15:19.971Z,11.88
2022-09-21T07:20:42.401Z,11.96
2022-09-21T07:26:06.802Z,12.02
2022-09-21T07:31:28.976Z,12.05
2022-09-21T07:36:51.011Z,12.51
2022-09-21T07:42:13.052Z,12.79
2022-09-21T07:47:35.082Z,12.82
2022-09-21T07:52:56.973Z,13.28
2022-09-21T07:58:39.301Z,13.68
2022-09-21T08:04:01.761Z,14.23
2022-09-21T08:09:23.862Z,14.49
2022-09-21T08:14:46.401Z,14.40
2022-09-21T08:20:08.484Z,14.51
2022-09-21T08:25:30.924Z,15.04
2022-09-21T08:30:53.132Z,15.19
2022-09-21T08:36:15.197Z,15.15
2022-09-21T08:41:58.619Z,15.58
2022-09-21T08:47:27.388Z,15.98
2022-09-21T08:52:53.340Z,16.04
2022-09-21T08:58:26.572Z,15.71
2022-09-21T09:04:04.283Z,15.50
2022-09-21T09:09:54.771Z,15.31
2022-09-21T09:15:19.853Z,15.24
2022-09-21T09:20:48.042Z,15.40
2022-09-21T09:26:35.887Z,15.36
2022-09-21T09:32:01.100Z,14.82
2022-09-21T09:37:33.062Z,14.70
2022-09-21T09:43:32.272Z,15.15
2022-09-21T09:49:09.948Z,15.02
2022-09-21T09:54:36.071Z,15.05
2022-09-21T10:00:04.670Z,15.30
2022-09-21T10:05:44.147Z,15.61
2022-09-21T10:11:07.352Z,15.56
2022-09-21T10:16:29.949Z,15.13
2022-09-21T10:21:58.651Z,14.94
2022-09-21T10:27:28.711Z,15.25
2022-09-21T10:32:57.401Z,15.05
2022-09-21T10:38:22.837Z,15.07
2022-09-21T10:43:45.132Z,15.05
2022-09-21T10:49:24.772Z,15.11
2022-09-21T10:54:52.702Z,15.37
2022-09-21T11:00:32.288Z,15.72
2022-09-21T11:05:55.611Z,16.06
2022-09-21T11:11:37.301Z,16.23
2022-09-21T11:17:09.901Z,16.08
2022-09-21T11:22:37.631Z,15.86
2022-09-21T11:28:14.077Z,15.98
2022-09-21T11:33:38.640Z,16.07
2022-09-21T11:39:30.195Z,16.10
2022-09-21T11:44:56.479Z,16.15
2022-09-21T11:50:44.616Z,16.23
2022-09-21T11:56:25.351Z,16.12
2022-09-21T12:02:16.454Z,15.81
2022-09-21T12:07:55.310Z,15.75
2022-09-21T12:13:22.760Z,15.90
2022-09-21T12:19:19.390Z,15.94
2022-09-21T12:25:13.901Z,15.53
2022-09-21T12:30:40.191Z,15.57
2022-09-21T12:36:11.331Z,15.51
2022-09-21T12:41:57.711Z,15.29
2022-09-21T12:47:43.200Z,15.27
2022-09-21T12:53:06.766Z,15.30
2022-09-21T12:58:47.307Z,15.25
2022-09-21T13:04:38.972Z,14.84
2022-09-21T13:10:10.219Z,14.65
2022-09-21T13:15:52.711Z,14.89
2022-09-21T13:21:16.392Z,14.80
2022-09-21T13:26:52.171Z,14.63
2022-09-21T13:32:14.442Z,14.78
2022-09-21T13:37:39.159Z,14.35
2022-09-21T13:43:17.997Z,14.28
2022-09-21T13:48:41.425Z,14.39
2022-09-21T13:54:04.885Z,14.23
2022-09-21T13:59:28.672Z,14.04
2022-09-21T14:05:01.985Z,13.81
2022-09-21T14:10:27.101Z,13.92
2022-09-21T14:15:52.368Z,13.66
2022-09-21T14:21:19.903Z,13.80
2022-09-21T14:33:19.052Z,13.63
2022-09-21T14:38:55.354Z,13.51
2022-09-21T14:44:30.544Z,13.26
2022-09-21T14:50:19.045Z,13.27
2022-09-21T14:56:10.698Z,13.19
2022-09-21T15:01:33.472Z,13.04
2022-09-21T15:07:28.581Z,12.89
2022-09-21T15:13:00.267Z,12.81
2022-09-21T15:18:23.891Z,12.62
2022-09-21T15:23:49.944Z,12.63
2022-09-21T15:29:25.142Z,12.54
2022-09-21T15:47:23.756Z,12.14
2022-09-21T15:53:05.942Z,11.69
2022-09-21T16:04:53.755Z,12.15
2022-09-21T16:23:40.440Z,11.52
2022-09-21T16:36:22.739Z,11.92
2022-09-21T16:41:48.972Z,11.77
2022-09-21T16:47:17.031Z,11.85
2022-09-21T16:52:39.228Z,11.86
2022-09-21T16:58:01.641Z,11.60
2022-09-21T17:03:23.822Z,11.75
2022-09-21T17:08:50.111Z,11.64
2022-09-21T17:14:16.396Z,11.68
2022-09-21T17:19:38.831Z,11.64
2022-09-21T17:25:01.047Z,11.46
2022-09-21T17:30:25.771Z,11.64
2022-09-21T17:35:51.772Z,11.61
2022-09-21T17:41:32.992Z,11.60
2022-09-21T17:47:16.723Z,11.55
2022-09-21T17:52:57.450Z,11.48
2022-09-21T17:58:47.151Z,11.47
2022-09-21T18:04:11.562Z,11.41
2022-09-21T18:09:33.764Z,11.23
2022-09-21T18:15:19.872Z,11.32
2022-09-21T18:20:54.441Z,11.32
2022-09-21T18:26:17.621Z,11.21
2022-09-21T18:32:08.031Z,11.15
2022-09-21T18:38:00.682Z,10.87
2022-09-21T18:43:47.309Z,10.90
2022-09-21T18:49:20.602Z,11.07
2022-09-21T18:54:52.791Z,10.49
2022-09-21T19:00:36.790Z,11.03
2022-09-21T19:30:13.515Z,10.92
2022-09-21T19:36:11.841Z,10.41
2022-09-21T20:01:14.456Z,10.75
2022-09-21T20:06:54.931Z,10.62
2022-09-21T20:12:31.388Z,10.62
2022-09-21T20:18:04.140Z,10.51
2022-09-21T20:23:27.030Z,10.28
2022-09-21T20:28:50.959Z,10.36
2022-09-21T20:34:26.852Z,10.72
2022-09-21T20:39:48.999Z,10.39
2022-09-21T20:45:13.471Z,10.67
2022-09-21T20:50:35.951Z,10.65
2022-09-21T20:56:01.494Z,10.69
2022-09-21T21:01:24.451Z,10.68
2022-09-21T21:06:46.790Z,10.57
2022-09-21T21:12:09.935Z,10.69
2022-09-21T21:17:36.310Z,10.70
2022-09-21T21:22:58.322Z,10.65
2022-09-21T21:28:20.031Z,10.47
2022-09-21T21:33:42.163Z,10.42
2022-09-21T21:39:04.110Z,10.59
2022-09-21T21:44:25.738Z,10.50
2022-09-21T21:49:48.936Z,10.58
2022-09-21T21:55:10.793Z,10.64
2022-09-21T22:00:32.982Z,10.62
2022-09-21T22:05:56.613Z,10.61
2022-09-21T22:11:20.469Z,10.60
2022-09-21T22:16:42.503Z,10.49
2022-09-21T22:22:04.991Z,10.52
2022-09-21T22:27:26.851Z,10.48
2022-09-21T22:32:49.272Z,10.47
2022-09-21T22:38:12.440Z,10.44
2022-09-21T22:43:34.692Z,10.45
2022-09-21T22:48:57.047Z,10.41
2022-09-21T22:54:19.285Z,10.40
2022-09-21T22:59:41.502Z,10.40
2022-09-21T23:05:03.581Z,10.48
2022-09-21T23:10:27.602Z,10.48
2022-09-21T23:15:49.782Z,10.36
2022-09-21T23:21:14.243Z,10.41
2022-09-21T23:26:36.099Z,10.42
2022-09-21T23:31:58.080Z,10.41
2022-09-21T23:37:20.189Z,10.43
2022-09-21T23:42:42.450Z,10.43
2022-09-21T23:48:04.504Z,10.47
2022-09-21T23:53:28.481Z,10.46
2022-09-21T23:58:51.499Z,10.35
